Flight Track Log - Related Links

Times and Time Zones

All times are in EDT time to prevent confusion due to time zone crossing. See the ASQ5941 flight status page for this flight to view local times or setup timezone preferences in your user account.

Time Position Orientation Groundspeed Altitude Reporting Facility
EDT Latitude Longitude Course Direction KTS MPH feet Rate Location/Type
Wed 04:03:31 PM 42.0333 -87.9167 80° East 220 253 2,500  Level Chicago TRACON
Wed 04:04:31 PM 42.0753 -87.8692 40° Northeast 230 265 4,200 1,918 Climbing Chicago Center
Wed 04:05:00 PM 42.0434 -87.4402 83° East  Level FlightAware Approximate
Wed 04:05:33 PM 42.1117 -87.7819 61° Northeast 274 315 6,400  Level Chicago Center
Wed 04:06:00 PM 42.0630 -87.2827 78° East  Level FlightAware Approximate
Wed 04:06:35 PM 42.1125 -87.6714 89° East 293 337 8,400  Level Chicago Center
Wed 04:07:00 PM 42.0873 -87.1263 77° East  Level FlightAware Approximate
Wed 04:07:37 PM 42.1128 -87.5342 90° East 307 353 10,700  Level Chicago Center
Wed 04:08:00 PM 42.1031 -86.9752 80° East  Level FlightAware Approximate
Wed 04:08:39 PM 42.1128 -87.4111 90° East 323 372 12,200  Level Chicago Center
Wed 04:09:41 PM 42.1128 -87.2842 90° East 337 388 13,700 1,306 Climbing Chicago Center
Wed 04:10:43 PM 42.1119 -87.1531 90° East 349 402 14,900 1,113 Climbing Chicago Center
Wed 04:11:45 PM 42.1131 -87.0142 89° East 368 423 16,000 1,113 Climbing Chicago Center
Wed 04:12:47 PM 42.1189 -86.8389 87° East 390 449 17,200 1,113 Climbing Chicago Center
Wed 04:13:49 PM 42.1247 -86.6897 87° East 400 460 18,300 1,008 Climbing Chicago Center
Wed 04:14:52 PM 42.1300 -86.5431 87° East 408 470 19,300 1,008 Climbing Chicago Center
Wed 04:15:54 PM 42.1350 -86.3883 87° East 413 475 20,400 1,016 Climbing Chicago Center
Wed 04:16:56 PM 42.1406 -86.2319 87° East 417 480 21,400 1,113 Climbing Chicago Center
Wed 04:17:58 PM 42.1653 -86.0433 80° East 425 489 22,700 1,113 Climbing Chicago Center
Wed 04:19:00 PM 42.1842 -85.8989 80° East 427 491 23,700 968 Climbing Chicago Center
Wed 04:20:02 PM 42.2053 -85.7425 80° East 427 491 24,700 968 Climbing Chicago Center
Wed 04:21:04 PM 42.2278 -85.5814 79° East 436 502 25,700 1,065 Climbing Chicago Center
Wed 04:22:06 PM 42.2528 -85.3892 80° East 436 502 26,900 1,065 Climbing Chicago Center
Wed 04:23:08 PM 42.2742 -85.2247 80° East 446 513 27,900 1,016 Climbing Chicago Center
Wed 04:24:10 PM 42.2958 -85.0631 80° East 444 511 29,000 1,016 Climbing Chicago Center
Wed 04:25:12 PM 42.3008 -84.9003 88° East 438 504 30,000 960 Climbing Chicago Center
Wed 04:26:15 PM 42.3025 -84.7414 89° East 429 494 31,000 1,104 Climbing Chicago Center
Wed 04:27:17 PM 42.3031 -84.5506 90° East 427 491 32,300 1,113 Climbing Chicago Center
Wed 04:28:19 PM 42.3031 -84.3942 90° East 422 486 33,300 990 Climbing Chicago Center
Wed 04:29:00 PM 42.3006 -84.2836 92° East 421 484 34,000 1,010 Climbing Cleveland Center
Wed 04:30:00 PM 42.2992 -84.1261 91° East 416 479 35,000 500 Climbing Cleveland Center
Wed 04:31:00 PM 42.2997 -83.9689 90° East 416 479 35,000  Level Cleveland Center
Wed 04:32:00 PM 42.3006 -83.7978 90° East 435 501 35,000  Level Cleveland Center
Wed 04:33:00 PM 42.2992 -83.6236 91° East 447 514 35,000  Level Cleveland Center
Wed 04:34:00 PM 42.2969 -83.4606 91° East 470 541 35,000  Level Cleveland Center
Wed 04:35:00 PM 42.2953 -83.2753 91° East 489 563 35,000  Level Cleveland Center
Wed 04:36:00 PM 42.2953 -83.0900 90° East 494 568 35,000  Level Cleveland Center
Wed 04:37:00 PM 42.2928 -82.9158 91° East 487 560 35,000  Level Cleveland Center
Wed 04:38:00 PM 42.2900 -82.7389 91° East 475 547 35,000  Level Cleveland Center
Wed 04:39:00 PM 42.2869 -82.5592 91° East 475 547 35,000  Level Cleveland Center
Wed 04:40:00 PM 42.2856 -82.3822 91° East 480 552 35,000  Level Cleveland Center
Wed 04:41:00 PM 42.2842 -82.2053 91° East 475 547 35,000  Level Cleveland Center
Wed 04:42:00 PM 42.2783 -82.0117 92° East 480 552 35,000  Level Cleveland Center
Wed 04:43:00 PM 42.2761 -81.8319 91° East 479 551 35,000  Level Cleveland Center
Wed 04:44:00 PM 42.2717 -81.6550 92° East 479 551 35,000  Level Cleveland Center
Wed 04:45:00 PM 42.2669 -81.4783 92° East 479 551 35,000  Level Cleveland Center
Wed 04:46:00 PM 42.2639 -81.3156 91° East 479 551 35,000  Level Cleveland Center
Wed 04:47:00 PM 42.2589 -81.1275 92° East 486 559 35,000  Level Cleveland Center
Wed 04:48:00 PM 42.2636 -80.9450 88° East 481 554 35,000  Level Cleveland Center
Wed 04:49:00 PM 42.2869 -80.7711 80° East 476 548 35,000  Level Cleveland Center
Wed 04:50:00 PM 42.3122 -80.5858 79° East 488 562 35,000  Level Cleveland Center
Wed 04:51:00 PM 42.3350 -80.4061 80° East 488 562 35,000  Level Cleveland Center
Wed 04:52:00 PM 42.3594 -80.2094 80° East 488 562 35,000  Level Cleveland Center
Wed 04:53:00 PM 42.3858 -80.0294 79° East 488 562 35,000  Level Cleveland Center
Wed 04:54:00 PM 42.4142 -79.8492 78° East 488 562 35,000  Level Cleveland Center
Wed 04:55:00 PM 42.4358 -79.6661 81° East 488 562 35,000  Level Cleveland Center
Wed 04:56:00 PM 42.4031 -79.4922 104° East 473 544 35,000  Level Cleveland Center
Wed 04:57:00 PM 42.3617 -79.3186 108° East 467 537 35,000  Level Cleveland Center
Wed 04:58:00 PM 42.3200 -79.1483 108° East 473 544 35,000  Level Cleveland Center
Wed 04:59:00 PM 42.2803 -78.9750 107° East 479 551 35,000  Level Cleveland Center
Wed 05:00:00 PM 42.2400 -78.8022 107° East 479 551 35,000  Level Cleveland Center
Wed 05:01:00 PM 42.1978 -78.6325 109° East 479 551 35,000 -550 Level Cleveland Center
Wed 05:02:00 PM 42.1531 -78.4572 109° East 485 558 33,900 -1,750 Descending Cleveland Center
Wed 05:03:00 PM 42.1100 -78.2769 108° East 490 564 31,500 -2,350 Descending Cleveland Center
Wed 05:04:00 PM 42.0714 -78.1272 109° East 490 564 29,200 -2,200 Descending Cleveland Center
Wed 05:05:00 PM 42.0300 -77.9553 108° East 484 557 27,100 -1,953 Descending Cleveland Center
Wed 05:06:52 PM 41.9478 -77.6394 109° East 493 567 23,600 -1,430 Descending New York Center
Wed 05:07:52 PM 41.9031 -77.4703 110° East 487 560 23,000 -298 Descending New York Center
Wed 05:08:53 PM 41.8606 -77.3017 109° East 482 555 23,000  Level New York Center
Wed 05:09:51 PM 41.8175 -77.1358 109° East 482 555 23,000 -508 Level New York Center
Wed 05:10:51 PM 41.7722 -76.9647 109° East 482 555 22,000 -1,983 Descending New York Center
Wed 05:11:52 PM 41.7269 -76.7936 109° East 465 535 19,000 -3,098 Descending New York Center
Wed 05:12:53 PM 41.6864 -76.6456 110° East 442 509 15,700 -2,975 Descending New York Center
Wed 05:13:53 PM 41.6481 -76.4950 109° East 428 493 13,000 -2,492 Descending New York Center
Wed 05:14:51 PM 41.6144 -76.3700 110° East 409 471 10,800 -1,513 Descending New York Center
Wed 05:15:52 PM 41.5825 -76.2481 109° East 370 426 10,000 -1,279 Descending New York Center
Wed 05:16:53 PM 41.5481 -76.1344 112° Southeast 311 358 8,200 -1,736 Descending New York Center
Wed 05:17:53 PM 41.5342 -76.0308 100° East 287 330 6,500 -1,714 Descending New York Center
Wed 05:18:52 PM 41.5242 -75.9247 97° East 281 323 4,800 -1,261 Descending New York Center
Wed 05:19:52 PM 41.5192 -75.8439 95° East 281 323 4,000 -397 Descending New York Center
Wed 05:20:53 PM 41.5100 -75.7214 96° East 276 318 4,000  Level New York Center
Wed 05:21:53 PM 41.5156 -75.6358 85° East 267 307 4,000 -203 Level New York Center
Wed 05:22:51 PM 41.4667 -75.6103 159° South 170 196 3,600 -650 Descending New York Center
Wed 05:23:53 PM 41.4211 -75.6511 214° Southwest 158 182 2,700 -836 Descending New York Center
Wed 05:24:53 PM 41.3928 -75.6797 217° Southwest 152 175 1,900 -712 Descending New York Center
Wed 05:25:51 PM 41.3606 -75.7050 210° Southwest 145 167 1,300 -303 Descending New York Center
Wed 05:26:52 PM 41.3306 -75.7275 209° Southwest 145 167 1,300 3,818 Level New York Center
Wed 05:27:52 PM 41.2983 -75.7528 211° Southwest 145 167 9,000 7,700 Climbing New York Center

Login

Don't have an account? Register now (free) for customized features, flight alerts, and more!